メインページ
METAR-TAF:

METAR-TAF

空港 :

クライストチャーチ国際空港

クライストチャーチ, ニュージーランド

緯度: 43-29S, 経度: 172-33E, 海抜: 38m

現時点の気象観測

当レポートは27分前の04:00(UTC)に作成
東/北東の風 12kt
気温 18°C
湿度 56%
気圧 1019 hPa
視程10km以上

METAR: NZCH 200400Z AUTO 07012KT 9999 NCD 18/09 Q1019 NOSIG

時間: 17:27 (04:27 UTC)

予報

当レポートは5時間23分前の23:04(UTC)に作成
予報は20日の 00時(UTC)から 21日の 00時(UTC)まで有効
東/北東の風 10kt
視程10km以上
1,500メートル以下は雲なし、積乱雲なし
20日の 09時(UTC)から 20日の 11時(UTC)まで徐々に
西/北西の風 5kt

TAF: NZCH 192304Z 2000/2100 06010KT CAVOK BECMG 2009/2011 29005KT

4,000以上の空港の気象観測と天気予報(METAR報とTAF報)

利用可能な観測所は地図上に黄色い丸と赤い丸で示す。

丸の上にカーソルを重ねると観測所名を参照できる。

次にクリックすると気象観測と天気予報を参照できる。

マップの切り替え:黒色「×」印の緑ボタンをクリックして拡大、「-」印の緑ボタンをクリックして縮小、緑色の三角印をクリックして隣りの地図に切り替え


METAR-TAF: